sensor_id;sensor_type;location;lat;lon;timestamp;P1;durP1;ratioP1;P2;durP2;ratioP2
48122;SDS011;33907;47.426;18.906;2024-03-25T00:01:04;8.38;;;4.65;;
48122;SDS011;33907;47.426;18.906;2024-03-25T00:03:31;7.53;;;4.70;;
48122;SDS011;33907;47.426;18.906;2024-03-25T00:05:57;8.00;;;5.57;;
48122;SDS011;33907;47.426;18.906;2024-03-25T00:08:24;9.00;;;5.45;;
48122;SDS011;33907;47.426;18.906;2024-03-25T00:10:52;7.50;;;5.45;;
48122;SDS011;33907;47.426;18.906;2024-03-25T00:13:18;9.13;;;5.22;;
48122;SDS011;33907;47.426;18.906;2024-03-25T00:15:46;10.18;;;6.10;;
48122;SDS011;33907;47.426;18.906;2024-03-25T00:18:13;10.57;;;5.50;;
48122;SDS011;33907;47.426;18.906;2024-03-25T00:20:39;10.38;;;5.85;;
48122;SDS011;33907;47.426;18.906;2024-03-25T00:23:05;6.68;;;4.50;;
48122;SDS011;33907;47.426;18.906;2024-03-25T00:25:33;7.78;;;5.03;;
48122;SDS011;33907;47.426;18.906;2024-03-25T00:28:00;7.32;;;4.93;;
48122;SDS011;33907;47.426;18.906;2024-03-25T00:30:26;8.82;;;5.07;;
48122;SDS011;33907;47.426;18.906;2024-03-25T00:32:54;7.85;;;4.90;;
48122;SDS011;33907;47.426;18.906;2024-03-25T00:35:20;8.25;;;4.60;;
48122;SDS011;33907;47.426;18.906;2024-03-25T00:37:47;8.52;;;4.62;;
48122;SDS011;33907;47.426;18.906;2024-03-25T00:40:14;7.47;;;4.65;;
48122;SDS011;33907;47.426;18.906;2024-03-25T00:42:40;7.80;;;5.10;;
48122;SDS011;33907;47.426;18.906;2024-03-25T00:45:07;8.57;;;4.72;;
48122;SDS011;33907;47.426;18.906;2024-03-25T00:47:34;7.50;;;4.57;;
48122;SDS011;33907;47.426;18.906;2024-03-25T00:50:00;7.70;;;5.00;;
48122;SDS011;33907;47.426;18.906;2024-03-25T00:52:27;7.22;;;4.95;;
48122;SDS011;33907;47.426;18.906;2024-03-25T00:54:53;6.90;;;5.18;;
48122;SDS011;33907;47.426;18.906;2024-03-25T00:57:20;8.38;;;5.03;;
48122;SDS011;33907;47.426;18.906;2024-03-25T00:59:46;7.62;;;5.43;;
48122;SDS011;33907;47.426;18.906;2024-03-25T01:02:13;7.60;;;5.00;;
48122;SDS011;33907;47.426;18.906;2024-03-25T01:04:39;7.37;;;4.60;;
48122;SDS011;33907;47.426;18.906;2024-03-25T01:07:06;9.30;;;5.22;;
48122;SDS011;33907;47.426;18.906;2024-03-25T01:09:32;9.30;;;4.75;;
48122;SDS011;33907;47.426;18.906;2024-03-25T01:11:59;8.20;;;5.12;;
48122;SDS011;33907;47.426;18.906;2024-03-25T01:14:25;7.93;;;4.75;;
48122;SDS011;33907;47.426;18.906;2024-03-25T01:16:52;7.60;;;5.07;;
48122;SDS011;33907;47.426;18.906;2024-03-25T01:19:19;7.50;;;4.60;;
48122;SDS011;33907;47.426;18.906;2024-03-25T01:21:47;4.97;;;2.05;;
48122;SDS011;33907;47.426;18.906;2024-03-25T01:24:13;8.00;;;5.30;;
48122;SDS011;33907;47.426;18.906;2024-03-25T01:26:40;8.93;;;4.62;;
48122;SDS011;33907;47.426;18.906;2024-03-25T01:29:07;7.87;;;4.53;;
48122;SDS011;33907;47.426;18.906;2024-03-25T01:31:35;7.47;;;4.87;;
48122;SDS011;33907;47.426;18.906;2024-03-25T01:34:01;6.87;;;4.53;;
48122;SDS011;33907;47.426;18.906;2024-03-25T01:36:27;6.95;;;4.20;;
48122;SDS011;33907;47.426;18.906;2024-03-25T01:38:54;8.25;;;4.65;;
48122;SDS011;33907;47.426;18.906;2024-03-25T01:41:21;6.55;;;4.05;;
48122;SDS011;33907;47.426;18.906;2024-03-25T01:43:51;8.25;;;4.43;;
48122;SDS011;33907;47.426;18.906;2024-03-25T01:46:18;8.50;;;4.75;;
48122;SDS011;33907;47.426;18.906;2024-03-25T01:48:47;6.82;;;4.35;;
48122;SDS011;33907;47.426;18.906;2024-03-25T01:51:15;7.20;;;4.60;;
48122;SDS011;33907;47.426;18.906;2024-03-25T01:53:44;7.72;;;4.53;;
48122;SDS011;33907;47.426;18.906;2024-03-25T01:56:10;6.07;;;3.60;;
48122;SDS011;33907;47.426;18.906;2024-03-25T01:58:39;6.47;;;4.35;;
48122;SDS011;33907;47.426;18.906;2024-03-25T02:01:06;7.78;;;4.68;;
48122;SDS011;33907;47.426;18.906;2024-03-25T02:03:32;7.62;;;4.50;;
48122;SDS011;33907;47.426;18.906;2024-03-25T02:06:00;5.93;;;3.70;;
48122;SDS011;33907;47.426;18.906;2024-03-25T02:08:29;5.53;;;3.87;;
48122;SDS011;33907;47.426;18.906;2024-03-25T02:10:57;6.00;;;3.53;;
48122;SDS011;33907;47.426;18.906;2024-03-25T02:13:24;5.55;;;3.15;;
48122;SDS011;33907;47.426;18.906;2024-03-25T02:15:51;6.85;;;3.42;;
48122;SDS011;33907;47.426;18.906;2024-03-25T02:18:18;5.97;;;3.67;;
48122;SDS011;33907;47.426;18.906;2024-03-25T02:20:44;6.70;;;3.62;;
48122;SDS011;33907;47.426;18.906;2024-03-25T02:23:11;6.07;;;3.75;;
48122;SDS011;33907;47.426;18.906;2024-03-25T02:25:39;5.40;;;3.80;;
48122;SDS011;33907;47.426;18.906;2024-03-25T02:28:08;5.30;;;3.40;;
48122;SDS011;33907;47.426;18.906;2024-03-25T02:30:35;5.80;;;3.40;;
48122;SDS011;33907;47.426;18.906;2024-03-25T02:33:03;6.07;;;3.28;;
48122;SDS011;33907;47.426;18.906;2024-03-25T02:35:29;6.65;;;3.37;;
48122;SDS011;33907;47.426;18.906;2024-03-25T02:37:56;5.65;;;3.20;;
48122;SDS011;33907;47.426;18.906;2024-03-25T02:40:24;7.18;;;3.30;;
48122;SDS011;33907;47.426;18.906;2024-03-25T02:42:52;5.57;;;3.30;;
48122;SDS011;33907;47.426;18.906;2024-03-25T02:45:18;5.10;;;3.17;;
48122;SDS011;33907;47.426;18.906;2024-03-25T02:47:45;5.82;;;3.62;;
48122;SDS011;33907;47.426;18.906;2024-03-25T02:50:12;5.45;;;3.30;;
48122;SDS011;33907;47.426;18.906;2024-03-25T02:52:38;5.35;;;3.15;;
48122;SDS011;33907;47.426;18.906;2024-03-25T02:55:05;5.78;;;3.12;;
48122;SDS011;33907;47.426;18.906;2024-03-25T02:57:32;5.90;;;3.50;;
48122;SDS011;33907;47.426;18.906;2024-03-25T02:59:59;5.55;;;3.20;;
48122;SDS011;33907;47.426;18.906;2024-03-25T03:02:25;5.95;;;3.40;;
48122;SDS011;33907;47.426;18.906;2024-03-25T03:04:52;5.32;;;2.85;;
48122;SDS011;33907;47.426;18.906;2024-03-25T03:07:18;6.37;;;3.30;;
48122;SDS011;33907;47.426;18.906;2024-03-25T03:09:45;4.72;;;3.00;;
48122;SDS011;33907;47.426;18.906;2024-03-25T03:12:12;5.78;;;3.28;;
48122;SDS011;33907;47.426;18.906;2024-03-25T03:14:38;5.78;;;3.47;;
48122;SDS011;33907;47.426;18.906;2024-03-25T03:17:05;5.93;;;3.60;;
48122;SDS011;33907;47.426;18.906;2024-03-25T03:19:33;5.35;;;3.28;;
48122;SDS011;33907;47.426;18.906;2024-03-25T03:22:02;6.87;;;3.87;;
48122;SDS011;33907;47.426;18.906;2024-03-25T03:24:29;6.22;;;3.70;;
48122;SDS011;33907;47.426;18.906;2024-03-25T03:26:55;4.78;;;3.00;;
48122;SDS011;33907;47.426;18.906;2024-03-25T03:29:21;5.00;;;2.92;;
48122;SDS011;33907;47.426;18.906;2024-03-25T03:31:48;5.82;;;3.40;;
48122;SDS011;33907;47.426;18.906;2024-03-25T03:34:15;6.78;;;3.45;;
48122;SDS011;33907;47.426;18.906;2024-03-25T03:36:41;7.53;;;3.47;;
48122;SDS011;33907;47.426;18.906;2024-03-25T03:39:08;5.55;;;3.47;;
48122;SDS011;33907;47.426;18.906;2024-03-25T03:41:37;6.07;;;3.83;;
48122;SDS011;33907;47.426;18.906;2024-03-25T03:44:04;4.82;;;3.00;;
48122;SDS011;33907;47.426;18.906;2024-03-25T03:46:30;5.28;;;3.25;;
48122;SDS011;33907;47.426;18.906;2024-03-25T03:48:57;5.45;;;3.00;;
48122;SDS011;33907;47.426;18.906;2024-03-25T03:51:24;5.45;;;3.08;;
48122;SDS011;33907;47.426;18.906;2024-03-25T03:53:50;5.20;;;3.20;;
48122;SDS011;33907;47.426;18.906;2024-03-25T03:56:17;7.12;;;3.03;;
48122;SDS011;33907;47.426;18.906;2024-03-25T03:58:44;5.30;;;2.85;;
48122;SDS011;33907;47.426;18.906;2024-03-25T04:01:14;5.68;;;2.80;;
48122;SDS011;33907;47.426;18.906;2024-03-25T04:03:42;5.45;;;2.97;;
48122;SDS011;33907;47.426;18.906;2024-03-25T04:06:09;5.10;;;2.75;;
48122;SDS011;33907;47.426;18.906;2024-03-25T04:08:39;4.55;;;2.87;;
48122;SDS011;33907;47.426;18.906;2024-03-25T04:11:06;4.62;;;3.03;;
48122;SDS011;33907;47.426;18.906;2024-03-25T04:13:33;5.53;;;2.80;;
48122;SDS011;33907;47.426;18.906;2024-03-25T04:16:01;6.55;;;3.22;;
48122;SDS011;33907;47.426;18.906;2024-03-25T04:18:31;6.95;;;2.97;;
48122;SDS011;33907;47.426;18.906;2024-03-25T04:20:58;5.80;;;3.20;;
48122;SDS011;33907;47.426;18.906;2024-03-25T04:23:25;5.22;;;2.90;;
48122;SDS011;33907;47.426;18.906;2024-03-25T04:25:52;6.03;;;3.12;;
48122;SDS011;33907;47.426;18.906;2024-03-25T04:28:19;5.55;;;3.20;;
48122;SDS011;33907;47.426;18.906;2024-03-25T04:30:52;5.75;;;2.60;;
48122;SDS011;33907;47.426;18.906;2024-03-25T04:33:22;5.40;;;3.30;;
48122;SDS011;33907;47.426;18.906;2024-03-25T04:35:49;4.15;;;2.35;;
48122;SDS011;33907;47.426;18.906;2024-03-25T04:38:16;4.65;;;2.70;;
48122;SDS011;33907;47.426;18.906;2024-03-25T04:40:43;5.25;;;2.70;;
48122;SDS011;33907;47.426;18.906;2024-03-25T04:43:10;4.82;;;2.50;;
48122;SDS011;33907;47.426;18.906;2024-03-25T04:45:36;6.12;;;2.65;;
48122;SDS011;33907;47.426;18.906;2024-03-25T04:48:03;5.03;;;2.55;;
48122;SDS011;33907;47.426;18.906;2024-03-25T04:50:30;6.18;;;2.90;;
48122;SDS011;33907;47.426;18.906;2024-03-25T04:52:56;5.30;;;2.47;;
48122;SDS011;33907;47.426;18.906;2024-03-25T04:55:23;4.55;;;2.62;;
48122;SDS011;33907;47.426;18.906;2024-03-25T04:57:51;5.32;;;2.72;;
48122;SDS011;33907;47.426;18.906;2024-03-25T05:00:18;5.12;;;2.25;;
48122;SDS011;33907;47.426;18.906;2024-03-25T05:02:45;5.20;;;2.37;;
48122;SDS011;33907;47.426;18.906;2024-03-25T05:05:11;6.22;;;2.95;;
48122;SDS011;33907;47.426;18.906;2024-03-25T05:07:38;4.62;;;2.12;;
48122;SDS011;33907;47.426;18.906;2024-03-25T05:10:06;4.93;;;2.60;;
48122;SDS011;33907;47.426;18.906;2024-03-25T05:12:33;4.65;;;2.50;;
48122;SDS011;33907;47.426;18.906;2024-03-25T05:14:59;5.20;;;2.12;;
48122;SDS011;33907;47.426;18.906;2024-03-25T05:17:26;4.62;;;2.17;;
48122;SDS011;33907;47.426;18.906;2024-03-25T05:19:52;4.75;;;2.37;;
48122;SDS011;33907;47.426;18.906;2024-03-25T05:22:19;4.80;;;2.30;;
48122;SDS011;33907;47.426;18.906;2024-03-25T05:24:47;4.55;;;2.10;;
48122;SDS011;33907;47.426;18.906;2024-03-25T05:27:15;4.65;;;2.40;;
48122;SDS011;33907;47.426;18.906;2024-03-25T05:29:41;3.97;;;2.05;;
48122;SDS011;33907;47.426;18.906;2024-03-25T05:32:08;5.22;;;2.28;;
48122;SDS011;33907;47.426;18.906;2024-03-25T05:34:35;4.40;;;2.30;;
48122;SDS011;33907;47.426;18.906;2024-03-25T05:37:02;6.47;;;2.53;;
48122;SDS011;33907;47.426;18.906;2024-03-25T05:39:29;5.43;;;2.42;;
48122;SDS011;33907;47.426;18.906;2024-03-25T05:41:55;4.70;;;2.50;;
48122;SDS011;33907;47.426;18.906;2024-03-25T05:44:22;4.50;;;2.35;;
48122;SDS011;33907;47.426;18.906;2024-03-25T05:46:48;4.12;;;2.28;;
48122;SDS011;33907;47.426;18.906;2024-03-25T05:49:15;5.03;;;2.40;;
48122;SDS011;33907;47.426;18.906;2024-03-25T05:51:41;6.40;;;2.60;;
48122;SDS011;33907;47.426;18.906;2024-03-25T05:54:08;3.80;;;2.62;;
48122;SDS011;33907;47.426;18.906;2024-03-25T05:56:35;4.93;;;2.50;;
48122;SDS011;33907;47.426;18.906;2024-03-25T05:59:01;5.28;;;2.50;;
48122;SDS011;33907;47.426;18.906;2024-03-25T06:01:28;4.15;;;2.10;;
48122;SDS011;33907;47.426;18.906;2024-03-25T06:03:54;5.03;;;2.55;;
48122;SDS011;33907;47.426;18.906;2024-03-25T06:06:21;3.78;;;2.17;;
48122;SDS011;33907;47.426;18.906;2024-03-25T06:08:47;4.68;;;2.42;;
48122;SDS011;33907;47.426;18.906;2024-03-25T06:11:16;5.45;;;2.62;;
48122;SDS011;33907;47.426;18.906;2024-03-25T06:13:46;3.65;;;2.20;;
48122;SDS011;33907;47.426;18.906;2024-03-25T06:16:18;4.65;;;2.22;;
48122;SDS011;33907;47.426;18.906;2024-03-25T06:18:44;3.83;;;2.10;;
48122;SDS011;33907;47.426;18.906;2024-03-25T06:21:10;4.65;;;2.50;;
48122;SDS011;33907;47.426;18.906;2024-03-25T06:23:37;4.87;;;2.50;;
48122;SDS011;33907;47.426;18.906;2024-03-25T06:26:04;4.90;;;2.53;;
48122;SDS011;33907;47.426;18.906;2024-03-25T06:28:30;4.97;;;2.40;;
48122;SDS011;33907;47.426;18.906;2024-03-25T06:30:57;4.72;;;2.42;;
48122;SDS011;33907;47.426;18.906;2024-03-25T06:33:42;5.10;;;2.58;;
48122;SDS011;33907;47.426;18.906;2024-03-25T06:36:27;4.43;;;2.30;;
48122;SDS011;33907;47.426;18.906;2024-03-25T06:38:53;4.87;;;2.58;;
48122;SDS011;33907;47.426;18.906;2024-03-25T06:41:20;3.87;;;2.08;;
48122;SDS011;33907;47.426;18.906;2024-03-25T06:43:47;2.78;;;1.62;;
48122;SDS011;33907;47.426;18.906;2024-03-25T06:46:13;3.37;;;1.90;;
48122;SDS011;33907;47.426;18.906;2024-03-25T06:48:40;3.58;;;1.90;;
48122;SDS011;33907;47.426;18.906;2024-03-25T06:51:06;4.60;;;1.90;;
48122;SDS011;33907;47.426;18.906;2024-03-25T06:53:33;3.97;;;2.10;;
48122;SDS011;33907;47.426;18.906;2024-03-25T06:56:00;4.97;;;2.35;;
48122;SDS011;33907;47.426;18.906;2024-03-25T06:58:27;5.28;;;2.42;;
48122;SDS011;33907;47.426;18.906;2024-03-25T07:00:56;5.97;;;2.60;;
48122;SDS011;33907;47.426;18.906;2024-03-25T07:03:23;6.05;;;2.17;;
48122;SDS011;33907;47.426;18.906;2024-03-25T07:05:50;5.00;;;3.05;;
48122;SDS011;33907;47.426;18.906;2024-03-25T07:08:18;4.62;;;2.60;;
48122;SDS011;33907;47.426;18.906;2024-03-25T07:10:45;3.92;;;2.30;;
48122;SDS011;33907;47.426;18.906;2024-03-25T07:13:12;5.00;;;2.72;;
48122;SDS011;33907;47.426;18.906;2024-03-25T07:15:39;5.78;;;2.40;;
48122;SDS011;33907;47.426;18.906;2024-03-25T07:18:05;5.10;;;2.42;;
48122;SDS011;33907;47.426;18.906;2024-03-25T07:20:32;4.75;;;2.50;;
48122;SDS011;33907;47.426;18.906;2024-03-25T07:22:59;5.47;;;2.62;;
48122;SDS011;33907;47.426;18.906;2024-03-25T07:25:25;5.47;;;2.58;;
48122;SDS011;33907;47.426;18.906;2024-03-25T07:27:53;3.67;;;2.00;;
48122;SDS011;33907;47.426;18.906;2024-03-25T07:30:19;4.50;;;2.67;;
48122;SDS011;33907;47.426;18.906;2024-03-25T07:32:48;4.50;;;2.55;;
48122;SDS011;33907;47.426;18.906;2024-03-25T07:35:14;5.07;;;2.55;;
48122;SDS011;33907;47.426;18.906;2024-03-25T07:37:43;4.15;;;2.10;;
48122;SDS011;33907;47.426;18.906;2024-03-25T07:40:10;5.15;;;2.50;;
48122;SDS011;33907;47.426;18.906;2024-03-25T07:42:38;4.53;;;2.45;;
48122;SDS011;33907;47.426;18.906;2024-03-25T07:45:05;4.55;;;2.50;;
48122;SDS011;33907;47.426;18.906;2024-03-25T07:47:32;4.20;;;2.25;;
48122;SDS011;33907;47.426;18.906;2024-03-25T07:49:59;4.35;;;2.37;;
48122;SDS011;33907;47.426;18.906;2024-03-25T07:52:26;5.50;;;2.37;;
48122;SDS011;33907;47.426;18.906;2024-03-25T07:54:53;4.75;;;2.65;;
48122;SDS011;33907;47.426;18.906;2024-03-25T07:57:20;4.32;;;2.30;;
48122;SDS011;33907;47.426;18.906;2024-03-25T07:59:47;6.75;;;2.80;;
48122;SDS011;33907;47.426;18.906;2024-03-25T08:02:13;4.62;;;2.50;;
48122;SDS011;33907;47.426;18.906;2024-03-25T08:04:40;6.25;;;2.37;;
48122;SDS011;33907;47.426;18.906;2024-03-25T08:07:07;5.75;;;2.70;;
48122;SDS011;33907;47.426;18.906;2024-03-25T08:09:33;4.37;;;2.47;;
48122;SDS011;33907;47.426;18.906;2024-03-25T08:12:00;5.35;;;2.45;;
48122;SDS011;33907;47.426;18.906;2024-03-25T08:14:27;5.07;;;2.60;;
48122;SDS011;33907;47.426;18.906;2024-03-25T08:16:53;4.60;;;2.22;;
48122;SDS011;33907;47.426;18.906;2024-03-25T08:19:20;4.20;;;2.20;;
48122;SDS011;33907;47.426;18.906;2024-03-25T08:21:46;5.82;;;2.53;;
48122;SDS011;33907;47.426;18.906;2024-03-25T08:24:13;4.60;;;2.45;;
48122;SDS011;33907;47.426;18.906;2024-03-25T08:26:40;5.80;;;2.35;;
48122;SDS011;33907;47.426;18.906;2024-03-25T08:29:07;5.45;;;2.25;;
48122;SDS011;33907;47.426;18.906;2024-03-25T08:31:33;4.10;;;2.60;;
48122;SDS011;33907;47.426;18.906;2024-03-25T08:34:00;5.80;;;2.62;;
48122;SDS011;33907;47.426;18.906;2024-03-25T08:36:26;4.55;;;2.22;;
48122;SDS011;33907;47.426;18.906;2024-03-25T08:38:53;4.93;;;2.25;;
48122;SDS011;33907;47.426;18.906;2024-03-25T08:41:20;4.28;;;2.30;;
48122;SDS011;33907;47.426;18.906;2024-03-25T08:43:46;4.90;;;2.65;;
48122;SDS011;33907;47.426;18.906;2024-03-25T08:46:13;5.20;;;2.25;;
48122;SDS011;33907;47.426;18.906;2024-03-25T08:48:39;4.82;;;2.42;;
48122;SDS011;33907;47.426;18.906;2024-03-25T08:51:06;6.55;;;2.37;;
48122;SDS011;33907;47.426;18.906;2024-03-25T08:53:33;5.82;;;2.37;;
48122;SDS011;33907;47.426;18.906;2024-03-25T08:56:00;3.97;;;2.08;;
48122;SDS011;33907;47.426;18.906;2024-03-25T08:58:27;4.55;;;2.58;;
48122;SDS011;33907;47.426;18.906;2024-03-25T09:00:54;3.90;;;2.15;;
48122;SDS011;33907;47.426;18.906;2024-03-25T09:03:21;5.97;;;2.50;;
48122;SDS011;33907;47.426;18.906;2024-03-25T09:05:47;4.87;;;2.22;;
48122;SDS011;33907;47.426;18.906;2024-03-25T09:08:13;7.03;;;2.30;;
48122;SDS011;33907;47.426;18.906;2024-03-25T09:10:43;3.75;;;2.15;;
48122;SDS011;33907;47.426;18.906;2024-03-25T09:13:29;4.03;;;2.12;;
48122;SDS011;33907;47.426;18.906;2024-03-25T09:15:56;4.87;;;2.10;;
48122;SDS011;33907;47.426;18.906;2024-03-25T09:18:23;5.07;;;2.37;;
48122;SDS011;33907;47.426;18.906;2024-03-25T09:20:49;5.20;;;2.25;;
48122;SDS011;33907;47.426;18.906;2024-03-25T09:23:16;4.47;;;2.42;;
48122;SDS011;33907;47.426;18.906;2024-03-25T09:25:52;4.10;;;2.05;;
48122;SDS011;33907;47.426;18.906;2024-03-25T09:28:19;5.55;;;2.20;;
48122;SDS011;33907;47.426;18.906;2024-03-25T09:30:47;4.28;;;2.00;;
48122;SDS011;33907;47.426;18.906;2024-03-25T09:33:15;4.18;;;2.20;;
48122;SDS011;33907;47.426;18.906;2024-03-25T09:35:42;6.03;;;2.35;;
48122;SDS011;33907;47.426;18.906;2024-03-25T09:38:08;4.15;;;2.33;;
48122;SDS011;33907;47.426;18.906;2024-03-25T09:40:35;3.97;;;2.10;;
48122;SDS011;33907;47.426;18.906;2024-03-25T09:43:04;4.62;;;2.10;;
48122;SDS011;33907;47.426;18.906;2024-03-25T09:45:34;5.12;;;2.22;;
48122;SDS011;33907;47.426;18.906;2024-03-25T09:48:02;5.95;;;2.20;;
48122;SDS011;33907;47.426;18.906;2024-03-25T09:50:30;5.28;;;2.50;;
48122;SDS011;33907;47.426;18.906;2024-03-25T09:52:58;6.70;;;2.10;;
48122;SDS011;33907;47.426;18.906;2024-03-25T09:55:25;4.53;;;1.92;;
48122;SDS011;33907;47.426;18.906;2024-03-25T09:57:52;4.05;;;1.62;;
48122;SDS011;33907;47.426;18.906;2024-03-25T10:00:18;3.58;;;1.90;;
48122;SDS011;33907;47.426;18.906;2024-03-25T10:02:45;6.82;;;2.17;;
48122;SDS011;33907;47.426;18.906;2024-03-25T10:05:12;3.33;;;1.60;;
48122;SDS011;33907;47.426;18.906;2024-03-25T10:07:38;5.18;;;2.00;;
48122;SDS011;33907;47.426;18.906;2024-03-25T10:10:05;4.37;;;1.90;;
48122;SDS011;33907;47.426;18.906;2024-03-25T10:12:32;3.65;;;1.80;;
48122;SDS011;33907;47.426;18.906;2024-03-25T10:14:59;4.32;;;2.28;;
48122;SDS011;33907;47.426;18.906;2024-03-25T10:17:26;4.68;;;2.12;;
48122;SDS011;33907;47.426;18.906;2024-03-25T10:19:55;4.62;;;2.30;;
48122;SDS011;33907;47.426;18.906;2024-03-25T10:22:22;3.95;;;1.85;;
48122;SDS011;33907;47.426;18.906;2024-03-25T10:24:48;4.53;;;1.95;;
48122;SDS011;33907;47.426;18.906;2024-03-25T10:27:19;3.45;;;1.92;;
48122;SDS011;33907;47.426;18.906;2024-03-25T10:29:47;4.43;;;1.98;;
48122;SDS011;33907;47.426;18.906;2024-03-25T10:32:14;4.72;;;1.83;;
48122;SDS011;33907;47.426;18.906;2024-03-25T10:34:40;4.78;;;2.28;;
48122;SDS011;33907;47.426;18.906;2024-03-25T10:37:08;4.47;;;2.12;;
48122;SDS011;33907;47.426;18.906;2024-03-25T10:39:38;4.40;;;1.80;;
48122;SDS011;33907;47.426;18.906;2024-03-25T10:42:06;4.65;;;1.80;;
48122;SDS011;33907;47.426;18.906;2024-03-25T10:44:33;3.15;;;1.83;;
48122;SDS011;33907;47.426;18.906;2024-03-25T10:47:01;4.05;;;2.05;;
48122;SDS011;33907;47.426;18.906;2024-03-25T10:52:04;6.12;;;1.80;;
48122;SDS011;33907;47.426;18.906;2024-03-25T10:54:31;3.78;;;1.80;;
48122;SDS011;33907;47.426;18.906;2024-03-25T10:56:58;4.50;;;1.75;;
48122;SDS011;33907;47.426;18.906;2024-03-25T10:59:26;2.95;;;1.48;;
48122;SDS011;33907;47.426;18.906;2024-03-25T11:01:55;4.93;;;1.62;;
48122;SDS011;33907;47.426;18.906;2024-03-25T11:04:23;4.12;;;1.70;;
48122;SDS011;33907;47.426;18.906;2024-03-25T11:06:50;3.25;;;1.85;;
48122;SDS011;33907;47.426;18.906;2024-03-25T11:09:23;4.97;;;1.95;;
48122;SDS011;33907;47.426;18.906;2024-03-25T11:14:19;4.70;;;1.85;;
48122;SDS011;33907;47.426;18.906;2024-03-25T11:16:55;4.10;;;1.90;;
48122;SDS011;33907;47.426;18.906;2024-03-25T11:19:25;3.37;;;1.95;;
48122;SDS011;33907;47.426;18.906;2024-03-25T11:21:53;3.05;;;1.40;;
48122;SDS011;33907;47.426;18.906;2024-03-25T11:24:27;4.45;;;1.50;;
48122;SDS011;33907;47.426;18.906;2024-03-25T11:26:55;3.83;;;1.40;;
48122;SDS011;33907;47.426;18.906;2024-03-25T11:29:22;4.80;;;2.10;;
48122;SDS011;33907;47.426;18.906;2024-03-25T11:31:49;3.72;;;2.12;;
48122;SDS011;33907;47.426;18.906;2024-03-25T11:34:19;3.45;;;2.00;;
48122;SDS011;33907;47.426;18.906;2024-03-25T11:36:46;4.05;;;1.77;;
48122;SDS011;33907;47.426;18.906;2024-03-25T11:39:14;3.25;;;1.60;;
48122;SDS011;33907;47.426;18.906;2024-03-25T11:41:42;3.50;;;1.50;;
48122;SDS011;33907;47.426;18.906;2024-03-25T11:44:09;4.55;;;1.95;;
48122;SDS011;33907;47.426;18.906;2024-03-25T11:46:36;3.87;;;1.42;;
48122;SDS011;33907;47.426;18.906;2024-03-25T11:49:07;4.18;;;1.95;;
48122;SDS011;33907;47.426;18.906;2024-03-25T11:51:39;4.68;;;2.08;;
48122;SDS011;33907;47.426;18.906;2024-03-25T11:54:09;3.50;;;2.17;;
48122;SDS011;33907;47.426;18.906;2024-03-25T11:56:36;6.30;;;2.03;;
48122;SDS011;33907;47.426;18.906;2024-03-25T11:59:06;4.10;;;1.85;;
48122;SDS011;33907;47.426;18.906;2024-03-25T12:01:34;3.90;;;2.35;;
48122;SDS011;33907;47.426;18.906;2024-03-25T12:04:09;4.05;;;1.80;;
48122;SDS011;33907;47.426;18.906;2024-03-25T12:06:41;5.85;;;2.12;;
48122;SDS011;33907;47.426;18.906;2024-03-25T12:09:08;5.50;;;2.33;;
48122;SDS011;33907;47.426;18.906;2024-03-25T12:11:55;7.50;;;2.58;;
48122;SDS011;33907;47.426;18.906;2024-03-25T12:14:22;4.40;;;2.72;;
48122;SDS011;33907;47.426;18.906;2024-03-25T12:16:49;5.47;;;2.72;;
48122;SDS011;33907;47.426;18.906;2024-03-25T12:19:20;5.35;;;2.60;;
48122;SDS011;33907;47.426;18.906;2024-03-25T12:21:47;5.43;;;2.30;;
48122;SDS011;33907;47.426;18.906;2024-03-25T12:24:14;4.75;;;1.60;;
48122;SDS011;33907;47.426;18.906;2024-03-25T12:26:40;5.78;;;1.65;;
48122;SDS011;33907;47.426;18.906;2024-03-25T12:29:07;3.42;;;1.30;;
48122;SDS011;33907;47.426;18.906;2024-03-25T12:31:34;2.12;;;1.30;;
48122;SDS011;33907;47.426;18.906;2024-03-25T12:34:00;4.22;;;1.20;;
48122;SDS011;33907;47.426;18.906;2024-03-25T12:36:27;3.35;;;1.30;;
48122;SDS011;33907;47.426;18.906;2024-03-25T12:38:56;2.42;;;1.10;;
48122;SDS011;33907;47.426;18.906;2024-03-25T12:41:23;4.15;;;1.60;;
48122;SDS011;33907;47.426;18.906;2024-03-25T12:43:50;4.47;;;1.75;;
48122;SDS011;33907;47.426;18.906;2024-03-25T12:46:17;5.00;;;1.80;;
48122;SDS011;33907;47.426;18.906;2024-03-25T12:48:43;4.72;;;1.73;;
48122;SDS011;33907;47.426;18.906;2024-03-25T12:51:14;4.35;;;2.10;;
48122;SDS011;33907;47.426;18.906;2024-03-25T12:53:41;4.47;;;2.50;;
48122;SDS011;33907;47.426;18.906;2024-03-25T12:56:07;4.53;;;2.30;;
48122;SDS011;33907;47.426;18.906;2024-03-25T12:58:34;5.57;;;2.60;;
48122;SDS011;33907;47.426;18.906;2024-03-25T13:01:01;5.30;;;2.25;;
48122;SDS011;33907;47.426;18.906;2024-03-25T13:03:27;6.68;;;2.47;;
48122;SDS011;33907;47.426;18.906;2024-03-25T13:05:55;4.40;;;2.20;;
48122;SDS011;33907;47.426;18.906;2024-03-25T13:08:24;3.60;;;1.90;;
48122;SDS011;33907;47.426;18.906;2024-03-25T13:10:51;3.60;;;2.08;;
48122;SDS011;33907;47.426;18.906;2024-03-25T13:13:18;3.25;;;1.42;;
48122;SDS011;33907;47.426;18.906;2024-03-25T13:15:44;5.97;;;1.30;;
48122;SDS011;33907;47.426;18.906;2024-03-25T13:18:11;4.37;;;1.70;;
48122;SDS011;33907;47.426;18.906;2024-03-25T13:20:37;3.72;;;1.83;;
48122;SDS011;33907;47.426;18.906;2024-03-25T13:23:04;3.67;;;1.80;;
48122;SDS011;33907;47.426;18.906;2024-03-25T13:25:30;3.50;;;1.70;;
48122;SDS011;33907;47.426;18.906;2024-03-25T13:27:57;4.62;;;1.70;;
48122;SDS011;33907;47.426;18.906;2024-03-25T13:30:23;3.70;;;1.65;;
48122;SDS011;33907;47.426;18.906;2024-03-25T13:32:51;3.92;;;1.85;;
48122;SDS011;33907;47.426;18.906;2024-03-25T13:35:18;4.85;;;1.80;;
48122;SDS011;33907;47.426;18.906;2024-03-25T13:37:45;3.75;;;1.87;;
48122;SDS011;33907;47.426;18.906;2024-03-25T13:40:12;4.47;;;1.87;;
48122;SDS011;33907;47.426;18.906;2024-03-25T13:42:38;3.85;;;1.87;;
48122;SDS011;33907;47.426;18.906;2024-03-25T13:45:05;3.85;;;2.17;;
48122;SDS011;33907;47.426;18.906;2024-03-25T13:47:32;3.80;;;1.92;;
48122;SDS011;33907;47.426;18.906;2024-03-25T13:50:05;4.32;;;2.30;;
48122;SDS011;33907;47.426;18.906;2024-03-25T13:52:35;4.18;;;2.03;;
48122;SDS011;33907;47.426;18.906;2024-03-25T13:55:02;4.87;;;1.77;;
48122;SDS011;33907;47.426;18.906;2024-03-25T13:57:28;4.80;;;1.80;;
48122;SDS011;33907;47.426;18.906;2024-03-25T13:59:56;2.75;;;1.67;;
48122;SDS011;33907;47.426;18.906;2024-03-25T14:02:23;3.33;;;1.90;;
48122;SDS011;33907;47.426;18.906;2024-03-25T14:04:50;3.65;;;1.83;;
48122;SDS011;33907;47.426;18.906;2024-03-25T14:07:16;3.17;;;1.52;;
48122;SDS011;33907;47.426;18.906;2024-03-25T14:09:43;4.37;;;1.90;;
48122;SDS011;33907;47.426;18.906;2024-03-25T14:12:10;6.18;;;1.90;;
48122;SDS011;33907;47.426;18.906;2024-03-25T14:14:36;3.22;;;1.52;;
48122;SDS011;33907;47.426;18.906;2024-03-25T14:17:03;2.70;;;1.30;;
48122;SDS011;33907;47.426;18.906;2024-03-25T14:19:30;4.12;;;1.80;;
48122;SDS011;33907;47.426;18.906;2024-03-25T14:21:57;5.75;;;2.17;;
48122;SDS011;33907;47.426;18.906;2024-03-25T14:24:23;4.03;;;1.90;;
48122;SDS011;33907;47.426;18.906;2024-03-25T14:26:50;4.10;;;1.67;;
48122;SDS011;33907;47.426;18.906;2024-03-25T14:29:17;3.30;;;1.60;;
48122;SDS011;33907;47.426;18.906;2024-03-25T14:31:43;4.22;;;1.80;;
48122;SDS011;33907;47.426;18.906;2024-03-25T14:34:10;4.20;;;1.67;;
48122;SDS011;33907;47.426;18.906;2024-03-25T14:36:36;4.12;;;1.37;;
48122;SDS011;33907;47.426;18.906;2024-03-25T14:39:03;3.37;;;1.73;;